Seminole, Texas
Current Conditions -  °F | °C
As of 9:15 PM on Friday 28 Nov 2014 (Local Time) from KGNC Reporting Station
Clear Clear  
Wind Chill: 47°   Ceiling: Unl
Heat Index: 47°   Visibility: 10mi
Dew Point: 21°   Wind: 0mph
Humidity: 36%   Direction: NA
Pressure: 30.02"   Gusts: NA
Location:  32.73°N, 102.64°W
Report Text: KGNC 290315Z AUTO 00000KT 10SM CLR 08/M06 A3002 RMK AO2 T00841059
Loading
Personal Weather Stations






























Interactive Weather Map New forecast layout! Learn more

10-Day Weather Forecast

Advertisements
Track Severe Weather on mobile